Terminal Aerodrome Forecast
Issued by NWS

Current Version | Previous Version | Graphics & Text | Print | Product List | Glossary On
Versions: 1 2 3 4 5 6 7 8 9 10 11 12 13 14 15 16 17 18 19 20 21 22 23
000
FTUS41 KRLX 241735
TAFCKB
TAF
KCKB 241735Z 2418/2518 09009KT 5SM -SHRA BR OVC070
     FM242000 07009G17KT P6SM -SHRA OVC050
     FM250000 07008KT P6SM OVC060
     FM250800 04004KT P6SM OVC030
     FM251100 02003KT P6SM OVC015
     FM251500 31003KT P6SM OVC008=

USA.gov is the U.S. government's official web portal to all federal, state and local government web resources and services.